sensor_id;sensor_type;location;lat;lon;timestamp;P1;durP1;ratioP1;P2;durP2;ratioP2
53873;SDS011;62246;50.938;4.058;2022-08-11T00:00:35;6.93;;;3.08;;
53873;SDS011;62246;50.938;4.058;2022-08-11T00:03:06;6.15;;;2.60;;
53873;SDS011;62246;50.938;4.058;2022-08-11T00:05:44;5.97;;;2.90;;
53873;SDS011;62246;50.938;4.058;2022-08-11T00:08:22;3.88;;;2.88;;
53873;SDS011;62246;50.938;4.058;2022-08-11T00:11:00;7.90;;;3.08;;
53873;SDS011;62246;50.938;4.058;2022-08-11T00:13:36;5.22;;;2.85;;
53873;SDS011;62246;50.938;4.058;2022-08-11T00:16:22;5.40;;;3.33;;
53873;SDS011;62246;50.938;4.058;2022-08-11T00:18:53;6.40;;;2.72;;
53873;SDS011;62246;50.938;4.058;2022-08-11T00:21:21;4.47;;;2.78;;
53873;SDS011;62246;50.938;4.058;2022-08-11T00:24:22;8.80;;;2.95;;
53873;SDS011;62246;50.938;4.058;2022-08-11T00:26:41;5.97;;;3.10;;
53873;SDS011;62246;50.938;4.058;2022-08-11T00:29:12;4.53;;;2.90;;
53873;SDS011;62246;50.938;4.058;2022-08-11T00:31:42;6.40;;;3.00;;
53873;SDS011;62246;50.938;4.058;2022-08-11T00:34:29;6.32;;;3.10;;
53873;SDS011;62246;50.938;4.058;2022-08-11T00:39:28;13.60;;;2.92;;
53873;SDS011;62246;50.938;4.058;2022-08-11T00:48:35;8.38;;;3.17;;
53873;SDS011;62246;50.938;4.058;2022-08-11T00:51:29;5.00;;;3.00;;
53873;SDS011;62246;50.938;4.058;2022-08-11T00:57:31;9.10;;;3.35;;
53873;SDS011;62246;50.938;4.058;2022-08-11T01:00:05;5.80;;;3.38;;
53873;SDS011;62246;50.938;4.058;2022-08-11T01:16:10;5.32;;;2.92;;
53873;SDS011;62246;50.938;4.058;2022-08-11T01:22:18;8.80;;;3.72;;
53873;SDS011;62246;50.938;4.058;2022-08-11T01:27:38;7.10;;;3.22;;
53873;SDS011;62246;50.938;4.058;2022-08-11T01:53:03;6.32;;;3.10;;
53873;SDS011;62246;50.938;4.058;2022-08-11T01:55:36;7.95;;;3.60;;
53873;SDS011;62246;50.938;4.058;2022-08-11T02:03:54;5.35;;;3.40;;
53873;SDS011;62246;50.938;4.058;2022-08-11T02:06:34;10.73;;;3.70;;
53873;SDS011;62246;50.938;4.058;2022-08-11T02:12:15;6.50;;;3.35;;
53873;SDS011;62246;50.938;4.058;2022-08-11T02:14:48;6.20;;;3.50;;
53873;SDS011;62246;50.938;4.058;2022-08-11T02:17:44;6.05;;;3.47;;
53873;SDS011;62246;50.938;4.058;2022-08-11T02:20:15;7.97;;;3.50;;
53873;SDS011;62246;50.938;4.058;2022-08-11T02:23:32;6.63;;;3.60;;
53873;SDS011;62246;50.938;4.058;2022-08-11T02:26:22;6.00;;;3.80;;
53873;SDS011;62246;50.938;4.058;2022-08-11T02:32:25;6.32;;;3.67;;
53873;SDS011;62246;50.938;4.058;2022-08-11T02:35:17;6.00;;;3.40;;
53873;SDS011;62246;50.938;4.058;2022-08-11T03:01:07;8.80;;;3.78;;
53873;SDS011;62246;50.938;4.058;2022-08-11T03:03:37;6.05;;;4.00;;
53873;SDS011;62246;50.938;4.058;2022-08-11T03:11:50;8.48;;;3.88;;
53873;SDS011;62246;50.938;4.058;2022-08-11T03:14:55;7.38;;;3.40;;
53873;SDS011;62246;50.938;4.058;2022-08-11T03:20:44;5.35;;;3.58;;
53873;SDS011;62246;50.938;4.058;2022-08-11T03:23:36;6.70;;;3.72;;
53873;SDS011;62246;50.938;4.058;2022-08-11T03:26:21;6.43;;;3.85;;
53873;SDS011;62246;50.938;4.058;2022-08-11T03:29:03;6.10;;;3.50;;
53873;SDS011;62246;50.938;4.058;2022-08-11T03:31:34;5.63;;;3.58;;
53873;SDS011;62246;50.938;4.058;2022-08-11T03:34:08;10.93;;;3.97;;
53873;SDS011;62246;50.938;4.058;2022-08-11T03:42:32;5.47;;;3.50;;
53873;SDS011;62246;50.938;4.058;2022-08-11T03:47:43;7.70;;;3.67;;
53873;SDS011;62246;50.938;4.058;2022-08-11T04:05:16;8.52;;;3.88;;
53873;SDS011;62246;50.938;4.058;2022-08-11T04:16:28;7.03;;;3.88;;
53873;SDS011;62246;50.938;4.058;2022-08-11T04:24:57;7.82;;;4.10;;
53873;SDS011;62246;50.938;4.058;2022-08-11T05:04:08;8.23;;;4.40;;
53873;SDS011;62246;50.938;4.058;2022-08-11T05:09:36;9.35;;;4.32;;
53873;SDS011;62246;50.938;4.058;2022-08-11T05:12:12;7.88;;;4.57;;
53873;SDS011;62246;50.938;4.058;2022-08-11T05:14:50;9.07;;;4.93;;
53873;SDS011;62246;50.938;4.058;2022-08-11T05:20:22;8.45;;;4.63;;
53873;SDS011;62246;50.938;4.058;2022-08-11T05:23:09;9.35;;;4.60;;
53873;SDS011;62246;50.938;4.058;2022-08-11T05:25:55;10.20;;;4.65;;
53873;SDS011;62246;50.938;4.058;2022-08-11T05:28:54;9.05;;;4.90;;
53873;SDS011;62246;50.938;4.058;2022-08-11T05:31:44;8.63;;;4.68;;
53873;SDS011;62246;50.938;4.058;2022-08-11T05:34:43;9.98;;;4.50;;
53873;SDS011;62246;50.938;4.058;2022-08-11T05:40:11;11.98;;;4.82;;
53873;SDS011;62246;50.938;4.058;2022-08-11T05:43:01;9.98;;;4.65;;
53873;SDS011;62246;50.938;4.058;2022-08-11T05:45:58;12.95;;;5.88;;
53873;SDS011;62246;50.938;4.058;2022-08-11T05:48:45;7.57;;;4.22;;
53873;SDS011;62246;50.938;4.058;2022-08-11T05:51:40;9.43;;;4.68;;
53873;SDS011;62246;50.938;4.058;2022-08-11T05:54:26;9.63;;;4.95;;
53873;SDS011;62246;50.938;4.058;2022-08-11T05:57:21;8.93;;;5.05;;
53873;SDS011;62246;50.938;4.058;2022-08-11T05:59:52;9.10;;;5.15;;
53873;SDS011;62246;50.938;4.058;2022-08-11T06:02:24;8.98;;;5.13;;
53873;SDS011;62246;50.938;4.058;2022-08-11T06:04:54;11.40;;;5.25;;
53873;SDS011;62246;50.938;4.058;2022-08-11T06:07:25;7.97;;;4.55;;
53873;SDS011;62246;50.938;4.058;2022-08-11T06:09:54;10.30;;;5.75;;
53873;SDS011;62246;50.938;4.058;2022-08-11T06:12:22;9.10;;;5.10;;
53873;SDS011;62246;50.938;4.058;2022-08-11T06:14:54;9.25;;;4.60;;
53873;SDS011;62246;50.938;4.058;2022-08-11T06:17:24;7.68;;;4.35;;
53873;SDS011;62246;50.938;4.058;2022-08-11T06:19:57;10.57;;;4.55;;
53873;SDS011;62246;50.938;4.058;2022-08-11T06:22:28;7.72;;;4.60;;
53873;SDS011;62246;50.938;4.058;2022-08-11T06:24:56;10.88;;;5.18;;
53873;SDS011;62246;50.938;4.058;2022-08-11T06:27:24;8.18;;;4.30;;
53873;SDS011;62246;50.938;4.058;2022-08-11T06:29:51;7.95;;;4.68;;
53873;SDS011;62246;50.938;4.058;2022-08-11T06:32:30;8.25;;;4.57;;
53873;SDS011;62246;50.938;4.058;2022-08-11T06:35:02;10.35;;;4.65;;
53873;SDS011;62246;50.938;4.058;2022-08-11T06:40:33;10.07;;;4.72;;
53873;SDS011;62246;50.938;4.058;2022-08-11T06:43:09;10.80;;;4.78;;
53873;SDS011;62246;50.938;4.058;2022-08-11T06:48:22;7.53;;;4.53;;
53873;SDS011;62246;50.938;4.058;2022-08-11T06:50:58;11.05;;;5.18;;
53873;SDS011;62246;50.938;4.058;2022-08-11T06:56:04;6.38;;;3.47;;
53873;SDS011;62246;50.938;4.058;2022-08-11T06:58:49;10.43;;;4.32;;
53873;SDS011;62246;50.938;4.058;2022-08-11T07:01:36;8.73;;;4.07;;
53873;SDS011;62246;50.938;4.058;2022-08-11T07:04:10;7.22;;;3.38;;
53873;SDS011;62246;50.938;4.058;2022-08-11T07:06:51;9.00;;;4.78;;
53873;SDS011;62246;50.938;4.058;2022-08-11T07:12:58;7.63;;;4.13;;
53873;SDS011;62246;50.938;4.058;2022-08-11T07:15:43;8.48;;;4.60;;
53873;SDS011;62246;50.938;4.058;2022-08-11T07:18:15;10.27;;;3.30;;
53873;SDS011;62246;50.938;4.058;2022-08-11T07:21:12;8.80;;;3.70;;
53873;SDS011;62246;50.938;4.058;2022-08-11T07:23:57;9.57;;;3.90;;
53873;SDS011;62246;50.938;4.058;2022-08-11T07:26:45;7.22;;;3.83;;
53873;SDS011;62246;50.938;4.058;2022-08-11T07:29:33;7.70;;;3.83;;
53873;SDS011;62246;50.938;4.058;2022-08-11T07:32:01;9.40;;;3.70;;
53873;SDS011;62246;50.938;4.058;2022-08-11T07:34:39;5.63;;;3.30;;
53873;SDS011;62246;50.938;4.058;2022-08-11T07:37:16;8.35;;;3.67;;
53873;SDS011;62246;50.938;4.058;2022-08-11T07:39:45;11.40;;;4.25;;
53873;SDS011;62246;50.938;4.058;2022-08-11T07:42:13;7.20;;;3.65;;
53873;SDS011;62246;50.938;4.058;2022-08-11T07:44:40;7.30;;;3.55;;
53873;SDS011;62246;50.938;4.058;2022-08-11T07:47:25;9.07;;;3.53;;
53873;SDS011;62246;50.938;4.058;2022-08-11T07:50:10;10.88;;;3.58;;
53873;SDS011;62246;50.938;4.058;2022-08-11T07:52:56;6.18;;;3.10;;
53873;SDS011;62246;50.938;4.058;2022-08-11T07:55:23;7.15;;;3.00;;
53873;SDS011;62246;50.938;4.058;2022-08-11T07:57:52;5.65;;;3.25;;
53873;SDS011;62246;50.938;4.058;2022-08-11T08:00:38;5.13;;;2.83;;
53873;SDS011;62246;50.938;4.058;2022-08-11T08:03:30;7.35;;;3.10;;
53873;SDS011;62246;50.938;4.058;2022-08-11T08:06:16;8.77;;;3.20;;
53873;SDS011;62246;50.938;4.058;2022-08-11T08:09:00;7.13;;;3.08;;
53873;SDS011;62246;50.938;4.058;2022-08-11T08:11:45;6.25;;;2.85;;
53873;SDS011;62246;50.938;4.058;2022-08-11T08:14:30;7.82;;;3.20;;
53873;SDS011;62246;50.938;4.058;2022-08-11T08:17:15;7.25;;;3.00;;
53873;SDS011;62246;50.938;4.058;2022-08-11T08:19:59;5.72;;;2.83;;
53873;SDS011;62246;50.938;4.058;2022-08-11T08:22:26;6.40;;;3.13;;
53873;SDS011;62246;50.938;4.058;2022-08-11T08:24:52;9.68;;;2.85;;
53873;SDS011;62246;50.938;4.058;2022-08-11T08:27:20;6.95;;;3.00;;
53873;SDS011;62246;50.938;4.058;2022-08-11T08:29:46;8.05;;;3.28;;
53873;SDS011;62246;50.938;4.058;2022-08-11T08:32:31;8.77;;;3.05;;
53873;SDS011;62246;50.938;4.058;2022-08-11T08:34:59;8.38;;;3.47;;
53873;SDS011;62246;50.938;4.058;2022-08-11T08:37:26;6.50;;;3.03;;
53873;SDS011;62246;50.938;4.058;2022-08-11T08:39:52;9.15;;;3.33;;
53873;SDS011;62246;50.938;4.058;2022-08-11T08:42:25;4.43;;;2.97;;
53873;SDS011;62246;50.938;4.058;2022-08-11T08:45:04;8.40;;;3.03;;
53873;SDS011;62246;50.938;4.058;2022-08-11T08:47:35;7.28;;;3.15;;
53873;SDS011;62246;50.938;4.058;2022-08-11T08:50:15;6.80;;;2.78;;
53873;SDS011;62246;50.938;4.058;2022-08-11T08:52:53;4.43;;;3.00;;
53873;SDS011;62246;50.938;4.058;2022-08-11T08:55:22;8.25;;;3.05;;
53873;SDS011;62246;50.938;4.058;2022-08-11T08:57:48;5.75;;;2.90;;
53873;SDS011;62246;50.938;4.058;2022-08-11T09:00:16;4.97;;;2.80;;
53873;SDS011;62246;50.938;4.058;2022-08-11T09:02:43;6.22;;;3.20;;
53873;SDS011;62246;50.938;4.058;2022-08-11T09:05:09;8.23;;;2.95;;
53873;SDS011;62246;50.938;4.058;2022-08-11T09:07:36;6.40;;;2.65;;
53873;SDS011;62246;50.938;4.058;2022-08-11T09:10:02;7.55;;;2.67;;
53873;SDS011;62246;50.938;4.058;2022-08-11T09:12:30;5.25;;;2.80;;
53873;SDS011;62246;50.938;4.058;2022-08-11T09:14:59;7.35;;;2.60;;
53873;SDS011;62246;50.938;4.058;2022-08-11T09:17:30;7.70;;;2.90;;
53873;SDS011;62246;50.938;4.058;2022-08-11T09:22:33;5.35;;;2.90;;
53873;SDS011;62246;50.938;4.058;2022-08-11T09:25:19;4.38;;;2.45;;
53873;SDS011;62246;50.938;4.058;2022-08-11T09:28:09;7.60;;;2.97;;
53873;SDS011;62246;50.938;4.058;2022-08-11T09:30:36;5.88;;;2.95;;
53873;SDS011;62246;50.938;4.058;2022-08-11T09:33:04;7.70;;;2.80;;
53873;SDS011;62246;50.938;4.058;2022-08-11T09:35:33;4.65;;;2.60;;
53873;SDS011;62246;50.938;4.058;2022-08-11T09:38:00;4.60;;;2.63;;
53873;SDS011;62246;50.938;4.058;2022-08-11T09:40:46;4.30;;;2.63;;
53873;SDS011;62246;50.938;4.058;2022-08-11T09:43:14;6.65;;;2.80;;
53873;SDS011;62246;50.938;4.058;2022-08-11T09:46:00;5.72;;;2.45;;
53873;SDS011;62246;50.938;4.058;2022-08-11T09:48:26;7.63;;;2.75;;
53873;SDS011;62246;50.938;4.058;2022-08-11T09:50:55;5.03;;;2.60;;
53873;SDS011;62246;50.938;4.058;2022-08-11T09:53:24;6.63;;;2.83;;
53873;SDS011;62246;50.938;4.058;2022-08-11T09:55:51;7.03;;;2.85;;
53873;SDS011;62246;50.938;4.058;2022-08-11T09:58:17;12.95;;;3.00;;
53873;SDS011;62246;50.938;4.058;2022-08-11T10:00:47;4.32;;;2.38;;
53873;SDS011;62246;50.938;4.058;2022-08-11T10:08:48;6.55;;;2.90;;
53873;SDS011;62246;50.938;4.058;2022-08-11T10:11:18;5.80;;;2.80;;
53873;SDS011;62246;50.938;4.058;2022-08-11T10:13:47;5.97;;;3.00;;
53873;SDS011;62246;50.938;4.058;2022-08-11T10:16:36;4.38;;;2.95;;
53873;SDS011;62246;50.938;4.058;2022-08-11T10:19:05;6.07;;;2.85;;
53873;SDS011;62246;50.938;4.058;2022-08-11T10:21:39;5.22;;;3.00;;
53873;SDS011;62246;50.938;4.058;2022-08-11T10:24:08;7.72;;;2.85;;
53873;SDS011;62246;50.938;4.058;2022-08-11T10:26:54;5.18;;;2.80;;
53873;SDS011;62246;50.938;4.058;2022-08-11T10:29:25;9.43;;;2.60;;
53873;SDS011;62246;50.938;4.058;2022-08-11T10:32:25;6.60;;;2.83;;
53873;SDS011;62246;50.938;4.058;2022-08-11T10:35:11;6.55;;;2.90;;
53873;SDS011;62246;50.938;4.058;2022-08-11T10:37:38;6.15;;;2.60;;
53873;SDS011;62246;50.938;4.058;2022-08-11T10:40:06;5.50;;;2.88;;
53873;SDS011;62246;50.938;4.058;2022-08-11T10:42:34;7.65;;;2.83;;
53873;SDS011;62246;50.938;4.058;2022-08-11T10:45:20;7.65;;;3.03;;
53873;SDS011;62246;50.938;4.058;2022-08-11T10:48:06;5.47;;;2.53;;
53873;SDS011;62246;50.938;4.058;2022-08-11T10:50:33;6.22;;;2.75;;
53873;SDS011;62246;50.938;4.058;2022-08-11T10:53:17;7.10;;;2.88;;
53873;SDS011;62246;50.938;4.058;2022-08-11T10:56:03;5.75;;;3.28;;
53873;SDS011;62246;50.938;4.058;2022-08-11T10:58:48;5.80;;;2.95;;
53873;SDS011;62246;50.938;4.058;2022-08-11T11:01:25;5.38;;;2.72;;
53873;SDS011;62246;50.938;4.058;2022-08-11T11:03:58;10.90;;;3.08;;
53873;SDS011;62246;50.938;4.058;2022-08-11T11:06:27;5.10;;;2.90;;
53873;SDS011;62246;50.938;4.058;2022-08-11T11:09:04;4.55;;;2.70;;
53873;SDS011;62246;50.938;4.058;2022-08-11T11:11:42;5.15;;;2.50;;
53873;SDS011;62246;50.938;4.058;2022-08-11T11:14:31;7.30;;;2.90;;
53873;SDS011;62246;50.938;4.058;2022-08-11T11:17:19;6.78;;;2.70;;
53873;SDS011;62246;50.938;4.058;2022-08-11T11:20:09;5.68;;;3.00;;
53873;SDS011;62246;50.938;4.058;2022-08-11T11:25:29;9.23;;;2.92;;
53873;SDS011;62246;50.938;4.058;2022-08-11T11:28:17;5.28;;;2.80;;
53873;SDS011;62246;50.938;4.058;2022-08-11T11:31:00;4.72;;;2.65;;
53873;SDS011;62246;50.938;4.058;2022-08-11T11:36:24;5.47;;;2.40;;
53873;SDS011;62246;50.938;4.058;2022-08-11T11:39:10;5.07;;;3.03;;
53873;SDS011;62246;50.938;4.058;2022-08-11T11:41:36;5.97;;;2.85;;
53873;SDS011;62246;50.938;4.058;2022-08-11T11:44:03;6.10;;;2.67;;
53873;SDS011;62246;50.938;4.058;2022-08-11T11:46:29;4.63;;;2.40;;
53873;SDS011;62246;50.938;4.058;2022-08-11T11:48:56;5.40;;;2.85;;
53873;SDS011;62246;50.938;4.058;2022-08-11T11:51:24;4.53;;;2.78;;
53873;SDS011;62246;50.938;4.058;2022-08-11T11:53:50;7.68;;;2.90;;
53873;SDS011;62246;50.938;4.058;2022-08-11T11:56:17;6.60;;;2.92;;
53873;SDS011;62246;50.938;4.058;2022-08-11T11:58:46;5.82;;;2.50;;
53873;SDS011;62246;50.938;4.058;2022-08-11T12:01:31;5.20;;;2.70;;
53873;SDS011;62246;50.938;4.058;2022-08-11T12:03:58;3.67;;;2.53;;
53873;SDS011;62246;50.938;4.058;2022-08-11T12:06:24;6.10;;;2.88;;
53873;SDS011;62246;50.938;4.058;2022-08-11T12:08:52;6.25;;;2.55;;
53873;SDS011;62246;50.938;4.058;2022-08-11T12:11:20;7.45;;;2.88;;
53873;SDS011;62246;50.938;4.058;2022-08-11T12:14:06;6.15;;;2.65;;
53873;SDS011;62246;50.938;4.058;2022-08-11T12:16:34;5.20;;;2.72;;
53873;SDS011;62246;50.938;4.058;2022-08-11T12:19:02;4.25;;;2.60;;
53873;SDS011;62246;50.938;4.058;2022-08-11T12:21:30;3.38;;;2.33;;
53873;SDS011;62246;50.938;4.058;2022-08-11T12:23:59;3.20;;;2.40;;
53873;SDS011;62246;50.938;4.058;2022-08-11T12:26:44;2.80;;;2.50;;
53873;SDS011;62246;50.938;4.058;2022-08-11T12:29:18;4.85;;;2.83;;
53873;SDS011;62246;50.938;4.058;2022-08-11T12:31:45;4.68;;;2.80;;
53873;SDS011;62246;50.938;4.058;2022-08-11T12:34:13;3.67;;;2.40;;
53873;SDS011;62246;50.938;4.058;2022-08-11T12:36:40;5.82;;;3.00;;
53873;SDS011;62246;50.938;4.058;2022-08-11T12:39:09;5.10;;;2.80;;
53873;SDS011;62246;50.938;4.058;2022-08-11T12:41:36;6.53;;;2.88;;
53873;SDS011;62246;50.938;4.058;2022-08-11T12:44:26;3.88;;;2.72;;
53873;SDS011;62246;50.938;4.058;2022-08-11T12:47:12;3.20;;;2.78;;
53873;SDS011;62246;50.938;4.058;2022-08-11T12:49:46;3.95;;;2.90;;
53873;SDS011;62246;50.938;4.058;2022-08-11T12:52:36;4.82;;;3.00;;
53873;SDS011;62246;50.938;4.058;2022-08-11T12:55:14;5.60;;;3.40;;
53873;SDS011;62246;50.938;4.058;2022-08-11T12:58:04;4.07;;;2.97;;
53873;SDS011;62246;50.938;4.058;2022-08-11T13:00:41;4.43;;;3.20;;
53873;SDS011;62246;50.938;4.058;2022-08-11T13:03:29;4.15;;;3.10;;
53873;SDS011;62246;50.938;4.058;2022-08-11T13:06:16;5.30;;;3.28;;
53873;SDS011;62246;50.938;4.058;2022-08-11T13:08:43;4.80;;;3.30;;
53873;SDS011;62246;50.938;4.058;2022-08-11T13:11:10;4.55;;;3.10;;
53873;SDS011;62246;50.938;4.058;2022-08-11T13:13:55;6.00;;;3.30;;
53873;SDS011;62246;50.938;4.058;2022-08-11T13:16:29;5.03;;;3.60;;
53873;SDS011;62246;50.938;4.058;2022-08-11T13:19:17;4.30;;;3.20;;
53873;SDS011;62246;50.938;4.058;2022-08-11T13:21:45;5.18;;;3.42;;
53873;SDS011;62246;50.938;4.058;2022-08-11T13:24:12;6.30;;;3.05;;
53873;SDS011;62246;50.938;4.058;2022-08-11T13:26:38;4.47;;;3.35;;
53873;SDS011;62246;50.938;4.058;2022-08-11T13:29:04;7.03;;;3.33;;
53873;SDS011;62246;50.938;4.058;2022-08-11T13:31:31;4.68;;;3.30;;
53873;SDS011;62246;50.938;4.058;2022-08-11T13:33:57;3.83;;;3.22;;
53873;SDS011;62246;50.938;4.058;2022-08-11T13:36:23;7.07;;;3.15;;
53873;SDS011;62246;50.938;4.058;2022-08-11T13:38:52;4.63;;;3.25;;
53873;SDS011;62246;50.938;4.058;2022-08-11T13:41:19;4.97;;;3.30;;
53873;SDS011;62246;50.938;4.058;2022-08-11T13:44:05;5.35;;;3.28;;
53873;SDS011;62246;50.938;4.058;2022-08-11T13:46:33;5.70;;;3.40;;
53873;SDS011;62246;50.938;4.058;2022-08-11T13:48:59;4.15;;;3.25;;
53873;SDS011;62246;50.938;4.058;2022-08-11T13:51:25;3.10;;;2.80;;
53873;SDS011;62246;50.938;4.058;2022-08-11T13:53:55;4.72;;;3.28;;
53873;SDS011;62246;50.938;4.058;2022-08-11T13:56:22;3.50;;;3.20;;
53873;SDS011;62246;50.938;4.058;2022-08-11T13:58:49;5.72;;;3.30;;
53873;SDS011;62246;50.938;4.058;2022-08-11T14:01:16;4.97;;;3.33;;
53873;SDS011;62246;50.938;4.058;2022-08-11T14:03:44;4.53;;;3.30;;
53873;SDS011;62246;50.938;4.058;2022-08-11T14:06:15;4.55;;;3.20;;
53873;SDS011;62246;50.938;4.058;2022-08-11T14:08:43;3.53;;;3.22;;
53873;SDS011;62246;50.938;4.058;2022-08-11T14:11:09;3.15;;;2.80;;
53873;SDS011;62246;50.938;4.058;2022-08-11T14:13:55;6.93;;;3.20;;
53873;SDS011;62246;50.938;4.058;2022-08-11T14:16:27;3.55;;;3.25;;
53873;SDS011;62246;50.938;4.058;2022-08-11T14:19:03;3.55;;;3.35;;
53873;SDS011;62246;50.938;4.058;2022-08-11T14:21:34;3.20;;;2.88;;
53873;SDS011;62246;50.938;4.058;2022-08-11T14:24:20;3.50;;;2.88;;
53873;SDS011;62246;50.938;4.058;2022-08-11T14:26:47;3.67;;;2.95;;
53873;SDS011;62246;50.938;4.058;2022-08-11T14:29:18;5.63;;;3.05;;
53873;SDS011;62246;50.938;4.058;2022-08-11T14:31:49;3.50;;;2.92;;
53873;SDS011;62246;50.938;4.058;2022-08-11T14:34:19;3.35;;;3.05;;
53873;SDS011;62246;50.938;4.058;2022-08-11T14:36:51;4.63;;;3.10;;
53873;SDS011;62246;50.938;4.058;2022-08-11T14:39:26;6.18;;;3.15;;
53873;SDS011;62246;50.938;4.058;2022-08-11T14:41:57;3.13;;;2.80;;
53873;SDS011;62246;50.938;4.058;2022-08-11T14:44:57;5.35;;;3.20;;
53873;SDS011;62246;50.938;4.058;2022-08-11T14:47:45;4.70;;;2.90;;
53873;SDS011;62246;50.938;4.058;2022-08-11T14:50:14;3.50;;;3.20;;
53873;SDS011;62246;50.938;4.058;2022-08-11T14:55:16;7.25;;;3.45;;
53873;SDS011;62246;50.938;4.058;2022-08-11T14:58:03;3.80;;;3.10;;
53873;SDS011;62246;50.938;4.058;2022-08-11T15:00:29;4.85;;;3.25;;
53873;SDS011;62246;50.938;4.058;2022-08-11T15:02:58;3.20;;;2.90;;
53873;SDS011;62246;50.938;4.058;2022-08-11T15:05:52;3.55;;;2.70;;
53873;SDS011;62246;50.938;4.058;2022-08-11T15:08:20;5.22;;;3.20;;
53873;SDS011;62246;50.938;4.058;2022-08-11T15:11:09;3.30;;;3.00;;
53873;SDS011;62246;50.938;4.058;2022-08-11T15:13:55;4.32;;;3.20;;
53873;SDS011;62246;50.938;4.058;2022-08-11T15:16:23;5.25;;;3.15;;
53873;SDS011;62246;50.938;4.058;2022-08-11T15:19:08;3.42;;;2.90;;
53873;SDS011;62246;50.938;4.058;2022-08-11T15:21:34;5.20;;;2.80;;
53873;SDS011;62246;50.938;4.058;2022-08-11T15:24:18;3.40;;;3.00;;
53873;SDS011;62246;50.938;4.058;2022-08-11T15:26:44;4.30;;;3.08;;
53873;SDS011;62246;50.938;4.058;2022-08-11T15:29:30;4.35;;;2.90;;
53873;SDS011;62246;50.938;4.058;2022-08-11T15:32:18;4.60;;;3.07;;
53873;SDS011;62246;50.938;4.058;2022-08-11T15:34:57;3.92;;;2.80;;
53873;SDS011;62246;50.938;4.058;2022-08-11T15:37:43;3.25;;;2.92;;
53873;SDS011;62246;50.938;4.058;2022-08-11T15:40:24;4.28;;;2.92;;
53873;SDS011;62246;50.938;4.058;2022-08-11T15:49:18;5.40;;;2.78;;
53873;SDS011;62246;50.938;4.058;2022-08-11T15:54:31;4.35;;;2.72;;
53873;SDS011;62246;50.938;4.058;2022-08-11T15:56:58;6.37;;;3.00;;
53873;SDS011;62246;50.938;4.058;2022-08-11T15:59:27;6.80;;;2.95;;
53873;SDS011;62246;50.938;4.058;2022-08-11T16:02:15;4.80;;;2.90;;
53873;SDS011;62246;50.938;4.058;2022-08-11T16:05:05;6.43;;;3.15;;
53873;SDS011;62246;50.938;4.058;2022-08-11T16:07:34;3.42;;;3.13;;
53873;SDS011;62246;50.938;4.058;2022-08-11T16:10:03;6.30;;;3.22;;
53873;SDS011;62246;50.938;4.058;2022-08-11T16:12:56;4.90;;;3.00;;
53873;SDS011;62246;50.938;4.058;2022-08-11T16:15:27;4.70;;;2.70;;
53873;SDS011;62246;50.938;4.058;2022-08-11T16:18:14;4.72;;;2.95;;
53873;SDS011;62246;50.938;4.058;2022-08-11T16:20:42;3.22;;;2.90;;
53873;SDS011;62246;50.938;4.058;2022-08-11T16:23:10;4.55;;;2.90;;
53873;SDS011;62246;50.938;4.058;2022-08-11T16:25:39;9.30;;;3.15;;
53873;SDS011;62246;50.938;4.058;2022-08-11T16:28:05;5.38;;;3.03;;
53873;SDS011;62246;50.938;4.058;2022-08-11T16:30:34;4.80;;;3.03;;
53873;SDS011;62246;50.938;4.058;2022-08-11T16:33:03;5.97;;;2.97;;
53873;SDS011;62246;50.938;4.058;2022-08-11T16:35:31;5.35;;;2.97;;
53873;SDS011;62246;50.938;4.058;2022-08-11T16:38:18;3.25;;;2.80;;
53873;SDS011;62246;50.938;4.058;2022-08-11T16:40:59;4.80;;;2.97;;
53873;SDS011;62246;50.938;4.058;2022-08-11T16:43:30;6.07;;;2.80;;
53873;SDS011;62246;50.938;4.058;2022-08-11T16:46:16;4.72;;;3.03;;
53873;SDS011;62246;50.938;4.058;2022-08-11T16:49:03;8.18;;;3.00;;
53873;SDS011;62246;50.938;4.058;2022-08-11T16:51:31;5.80;;;3.00;;
53873;SDS011;62246;50.938;4.058;2022-08-11T16:53:57;5.60;;;2.80;;
53873;SDS011;62246;50.938;4.058;2022-08-11T16:56:27;4.30;;;2.75;;
53873;SDS011;62246;50.938;4.058;2022-08-11T16:58:56;3.42;;;2.70;;
53873;SDS011;62246;50.938;4.058;2022-08-11T17:02:05;3.10;;;2.55;;
53873;SDS011;62246;50.938;4.058;2022-08-11T17:05:02;3.53;;;2.50;;
53873;SDS011;62246;50.938;4.058;2022-08-11T17:07:50;7.97;;;2.97;;
53873;SDS011;62246;50.938;4.058;2022-08-11T17:10:39;5.55;;;2.55;;
53873;SDS011;62246;50.938;4.058;2022-08-11T17:16:01;4.00;;;2.50;;
53873;SDS011;62246;50.938;4.058;2022-08-11T17:21:08;6.82;;;2.83;;
53873;SDS011;62246;50.938;4.058;2022-08-11T17:23:37;4.32;;;2.45;;
53873;SDS011;62246;50.938;4.058;2022-08-11T17:26:15;9.57;;;3.10;;
53873;SDS011;62246;50.938;4.058;2022-08-11T17:28:53;5.30;;;2.80;;
53873;SDS011;62246;50.938;4.058;2022-08-11T17:31:22;5.05;;;2.30;;
53873;SDS011;62246;50.938;4.058;2022-08-11T17:34:08;5.93;;;2.63;;
53873;SDS011;62246;50.938;4.058;2022-08-11T17:36:53;30.48;;;2.97;;
53873;SDS011;62246;50.938;4.058;2022-08-11T17:39:20;4.70;;;2.30;;
53873;SDS011;62246;50.938;4.058;2022-08-11T17:41:48;3.35;;;2.35;;
53873;SDS011;62246;50.938;4.058;2022-08-11T17:44:34;5.38;;;2.70;;
53873;SDS011;62246;50.938;4.058;2022-08-11T17:47:19;5.40;;;2.40;;
53873;SDS011;62246;50.938;4.058;2022-08-11T17:50:04;5.88;;;2.40;;
53873;SDS011;62246;50.938;4.058;2022-08-11T17:52:31;7.72;;;2.55;;
53873;SDS011;62246;50.938;4.058;2022-08-11T17:55:16;6.88;;;2.55;;
53873;SDS011;62246;50.938;4.058;2022-08-11T17:58:01;5.25;;;2.50;;
53873;SDS011;62246;50.938;4.058;2022-08-11T18:00:47;5.15;;;2.63;;
53873;SDS011;62246;50.938;4.058;2022-08-11T18:03:15;7.60;;;2.50;;
53873;SDS011;62246;50.938;4.058;2022-08-11T18:05:56;6.20;;;2.40;;
53873;SDS011;62246;50.938;4.058;2022-08-11T18:08:25;5.38;;;2.45;;
53873;SDS011;62246;50.938;4.058;2022-08-11T18:11:13;4.30;;;2.40;;
53873;SDS011;62246;50.938;4.058;2022-08-11T18:14:00;5.72;;;2.53;;
53873;SDS011;62246;50.938;4.058;2022-08-11T18:16:46;4.10;;;2.30;;
53873;SDS011;62246;50.938;4.058;2022-08-11T18:19:31;4.97;;;2.28;;
53873;SDS011;62246;50.938;4.058;2022-08-11T18:22:16;4.60;;;2.50;;
53873;SDS011;62246;50.938;4.058;2022-08-11T18:25:09;6.22;;;2.45;;
53873;SDS011;62246;50.938;4.058;2022-08-11T18:27:56;5.80;;;2.60;;
53873;SDS011;62246;50.938;4.058;2022-08-11T18:30:42;5.57;;;2.45;;
53873;SDS011;62246;50.938;4.058;2022-08-11T18:33:29;4.82;;;2.45;;
53873;SDS011;62246;50.938;4.058;2022-08-11T18:36:20;4.78;;;2.70;;
53873;SDS011;62246;50.938;4.058;2022-08-11T18:39:09;6.10;;;2.40;;
53873;SDS011;62246;50.938;4.058;2022-08-11T18:41:57;3.00;;;2.20;;
53873;SDS011;62246;50.938;4.058;2022-08-11T18:44:46;4.90;;;2.55;;
53873;SDS011;62246;50.938;4.058;2022-08-11T18:47:32;7.40;;;2.60;;
53873;SDS011;62246;50.938;4.058;2022-08-11T18:50:17;5.70;;;2.75;;
53873;SDS011;62246;50.938;4.058;2022-08-11T18:53:02;6.25;;;2.80;;
53873;SDS011;62246;50.938;4.058;2022-08-11T18:55:48;6.75;;;2.83;;
53873;SDS011;62246;50.938;4.058;2022-08-11T18:58:34;3.58;;;2.90;;
53873;SDS011;62246;50.938;4.058;2022-08-11T19:01:19;4.72;;;2.63;;
53873;SDS011;62246;50.938;4.058;2022-08-11T19:04:05;7.55;;;2.65;;
53873;SDS011;62246;50.938;4.058;2022-08-11T19:06:51;5.63;;;2.90;;
53873;SDS011;62246;50.938;4.058;2022-08-11T19:09:39;6.78;;;2.78;;
53873;SDS011;62246;50.938;4.058;2022-08-11T19:12:27;5.00;;;3.00;;
53873;SDS011;62246;50.938;4.058;2022-08-11T19:15:15;11.43;;;3.20;;
53873;SDS011;62246;50.938;4.058;2022-08-11T19:18:00;6.38;;;2.85;;
53873;SDS011;62246;50.938;4.058;2022-08-11T19:20:45;8.40;;;3.00;;
53873;SDS011;62246;50.938;4.058;2022-08-11T19:23:32;6.03;;;3.05;;
53873;SDS011;62246;50.938;4.058;2022-08-11T19:26:19;5.43;;;2.80;;
53873;SDS011;62246;50.938;4.058;2022-08-11T19:29:04;7.30;;;2.80;;
53873;SDS011;62246;50.938;4.058;2022-08-11T19:31:49;4.55;;;3.15;;